| time (UTC) | temp F | wind direction | speed MPH | gust MPH | rain 1hr in | rain 24hr in | rain mn in | humidity % | barometer mb |
| 20260505194057 | 58 | 0.0 | 3.0 | 0.00 | 0.00 | 0.00 | 81 | 1016.5 | |
| 20260505193017 | 58 | 0.0 | 2.0 | 0.00 | 0.00 | 0.00 | 82 | 1016.5 | |
| 20260505192016 | 58 | 0.0 | 2.0 | 0.00 | 0.00 | 0.00 | 83 | 1016.3 | |
| 20260505191017 | 58 | 0.0 | 3.0 | 0.00 | 0.00 | 0.00 | 83 | 1016.4 | |
| 20260505190017 | 57 | 0.0 | 2.0 | 0.00 | 0.00 | 0.00 | 83 | 1016.4 | |
| 20260505185017 | 57 | 0.0 | 4.0 | 0.00 | 0.00 | 0.00 | 84 | 1016.3 | |
| 20260505184017 | 57 | 0.0 | 4.0 | 0.00 | 0.00 | 0.00 | 84 | 1016.3 | |
| 20260505183017 | 57 | 0.0 | 1.0 | 0.00 | 0.00 | 0.00 | 84 | 1016.4 | |
| 20260505182017 | 57 | 0.0 | 2.0 | 0.00 | 0.00 | 0.00 | 85 | 1016.3 | |
| 20260505181017 | 56 | 135 | 1.0 | 3.0 | 0.00 | 0.00 | 0.00 | 85 | 1016.3 |
| 20260505180017 | 56 | 113 | 1.0 | 4.0 | 0.00 | 0.00 | 0.00 | 85 | 1016.3 |
| 20260505175016 | 56 | 0.0 | 4.0 | 0.00 | 0.00 | 0.00 | 85 | 1016.4 | |
| 20260505174017 | 56 | 0.0 | 4.0 | 0.00 | 0.00 | 0.00 | 85 | 1016.4 | |
| 20260505173017 | 57 | 0.0 | 3.0 | 0.00 | 0.00 | 0.00 | 85 | 1016.3 | |
| 20260505172037 | 57 | 0.0 | 3.0 | 0.00 | 0.00 | 0.00 | 85 | 1016.2 | |
| 20260505171016 | 57 | 0.0 | 2.0 | 0.00 | 0.00 | 0.00 | 85 | 1016.1 | |
| 20260505170037 | 57 | 0.0 | 1.0 | 0.00 | 0.00 | 0.00 | 85 | 1016.2 | |
| 20260505165017 | 57 | 0.0 | 2.0 | 0.00 | 0.00 | 0.00 | 85 | 1016.1 | |
| 20260505164016 | 57 | 0.0 | 2.0 | 0.00 | 0.00 | 0.00 | 85 | 1016.1 | |
| 20260505163057 | 56 | 0.0 | 1.0 | 0.00 | 0.00 | 0.00 | 85 | 1016.1 | |
| 20260505162016 | 56 | 0.0 | 1.0 | 0.00 | 0.00 | 0.00 | 85 | 1016.0 | |
| 20260505161056 | 56 | 0.0 | 0.0 | 0.00 | 0.00 | 0.00 | 85 | 1016.0 | |
| 20260505153017 | 56 | 0.0 | 1.0 | 0.00 | 0.00 | 0.00 | 85 | 1015.9 | |
| 20260505152037 | 56 | 0.0 | 2.0 | 0.00 | 0.00 | 0.00 | 85 | 1015.8 | |
| 20260505151017 | 56 | 0.0 | 2.0 | 0.00 | 0.00 | 0.00 | 85 | 1015.8 | |
| 20260505125016 | 54 | 0.0 | 0.0 | 0.00 | 0.00 | 0.00 | 90 | 1014.4 | |
| 20260505124016 | 54 | 0.0 | 0.0 | 0.00 | 0.00 | 0.00 | 90 | 1014.4 | |
| 20260505123016 | 54 | 0.0 | 0.0 | 0.00 | 0.00 | 0.00 | 90 | 1014.3 | |
| 20260505122036 | 53 | 0.0 | 0.0 | 0.00 | 0.00 | 0.00 | 90 | 1014.2 | |
| 20260505121016 | 53 | 0.0 | 0.0 | 0.00 | 0.00 | 0.00 | 91 | 1014.2 | |
| 20260505120036 | 53 | 0.0 | 0.0 | 0.00 | 0.00 | 0.00 | 90 | 1014.1 | |
| 20260505115016 | 53 | 0.0 | 0.0 | 0.00 | 0.00 | 0.00 | 90 | 1014.0 | |
| 20260505114016 | 53 | 0.0 | 0.0 | 0.00 | 0.00 | 0.00 | 89 | 1014.0 | |
| 20260505113056 | 54 | 0.0 | 1.0 | 0.00 | 0.00 | 0.00 | 89 | 1014.0 | |
| 20260505112016 | 54 | 0.0 | 1.0 | 0.00 | 0.00 | 0.00 | 89 | 1013.9 | |
| 20260505111016 | 54 | 0.0 | 1.0 | 0.00 | 0.00 | 0.00 | 89 | 1013.9 | |
| 20260505102017 | 55 | 0.0 | 2.0 | 0.00 | 0.00 | 0.00 | 88 | 1013.5 | |
| 20260505101016 | 55 | 0.0 | 0.0 | 0.00 | 0.00 | 0.00 | 87 | 1013.4 | |
| 20260505100016 | 55 | 0.0 | 1.0 | 0.00 | 0.00 | 0.00 | 87 | 1013.3 | |
| 20260505095036 | 55 | 0.0 | 2.0 | 0.00 | 0.00 | 0.00 | 87 | 1013.2 | |
| 20260505094017 | 55 | 0.0 | 1.0 | 0.00 | 0.00 | 0.00 | 87 | 1013.1 | |
| 20260505093016 | 56 | 0.0 | 1.0 | 0.00 | 0.00 | 0.00 | 86 | 1013.0 | |
| 20260505092016 | 56 | 0.0 | 0.0 | 0.00 | 0.00 | 0.00 | 86 | 1012.9 | |
| 20260505091016 | 56 | 0.0 | 0.0 | 0.00 | 0.00 | 0.00 | 85 | 1012.9 | |
| 20260505090016 | 56 | 0.0 | 0.0 | 0.00 | 0.00 | 0.00 | 85 | 1012.9 | |
| 20260505085016 | 56 | 0.0 | 0.0 | 0.00 | 0.00 | 0.00 | 84 | 1012.8 | |
| 20260505084036 | 57 | 0.0 | 0.0 | 0.00 | 0.00 | 0.00 | 84 | 1012.8 | |
| 20260505083016 | 57 | 0.0 | 1.0 | 0.00 | 0.00 | 0.00 | 84 | 1012.7 | |
| 20260505082016 | 57 | 0.0 | 1.0 | 0.00 | 0.00 | 0.00 | 83 | 1012.6 | |
| 20260505081016 | 58 | 0.0 | 2.0 | 0.00 | 0.00 | 0.00 | 83 | 1012.5 | |
| 20260505080016 | 58 | 0.0 | 1.0 | 0.00 | 0.00 | 0.00 | 82 | 1012.4 | |
| 20260505075016 | 58 | 0.0 | 0.0 | 0.00 | 0.00 | 0.00 | 82 | 1012.4 | |
| 20260505074016 | 59 | 0.0 | 2.0 | 0.00 | 0.00 | 0.00 | 82 | 1012.3 | |
| 20260505073016 | 59 | 0.0 | 0.0 | 0.00 | 0.00 | 0.00 | 81 | 1012.2 | |
| 20260505072019 | 59 | 0.0 | 1.0 | 0.00 | 0.00 | 0.00 | 80 | 1012.1 | |
| 20260505071036 | 60 | 0.0 | 2.0 | 0.00 | 0.00 | 0.00 | 80 | 1012.0 | |
| 20260505070016 | 60 | 0.0 | 1.0 | 0.00 | 0.00 | 0.00 | 79 | 1011.8 | |
| 20260505065015 | 61 | 0.0 | 1.0 | 0.00 | 0.00 | 0.00 | 78 | 1011.8 | |
| 20260505064016 | 61 | 0.0 | 1.0 | 0.00 | 0.00 | 0.00 | 78 | 1011.6 | |
| 20260505063017 | 61 | 0.0 | 1.0 | 0.00 | 0.00 | 0.00 | 78 | 1011.5 | |
| 20260505062016 | 61 | 0.0 | 0.0 | 0.00 | 0.00 | 0.00 | 78 | 1011.4 | |
| 20260505061016 | 62 | 0.0 | 0.0 | 0.00 | 0.00 | 0.00 | 78 | 1011.3 | |
| 20260505060015 | 62 | 0.0 | 0.0 | 0.00 | 0.00 | 0.00 | 77 | 1011.3 | |
| 20260505055016 | 62 | 0.0 | 0.0 | 0.00 | 0.00 | 0.00 | 76 | 1011.3 | |
| 20260505054016 | 62 | 0.0 | 0.0 | 0.00 | 0.00 | 0.00 | 75 | 1011.4 | |
| 20260505053015 | 63 | 0.0 | 0.0 | 0.00 | 0.00 | 0.00 | 73 | 1011.2 | |
| 20260505052015 | 63 | 0.0 | 0.0 | 0.00 | 0.00 | 0.00 | 71 | 1011.2 | |
| 20260505051016 | 64 | 0.0 | 0.0 | 0.00 | 0.00 | 0.00 | 71 | 1011.1 | |
| 20260505041036 | 68 | 0.0 | 0.0 | 0.00 | 0.00 | 0.00 | 61 | 1010.3 | |
| 20260505040015 | 68 | 0.0 | 0.0 | 0.00 | 0.00 | 0.00 | 59 | 1010.1 | |
| 20260505035015 | 69 | 0.0 | 2.0 | 0.00 | 0.00 | 0.00 | 59 | 1010.1 | |
| 20260505034017 | 69 | 0.0 | 1.0 | 0.00 | 0.00 | 0.00 | 59 | 1009.8 | |
| 20260505033015 | 69 | 0.0 | 1.0 | 0.00 | 0.00 | 0.00 | 59 | 1009.6 | |
| 20260505032017 | 71 | 0.0 | 0.0 | 0.00 | 0.00 | 0.00 | 57 | 1009.4 | |
| 20260505031017 | 71 | 0.0 | 0.0 | 0.00 | 0.00 | 0.00 | 55 | 1009.2 | |
| 20260505030017 | 72 | 0.0 | 0.0 | 0.00 | 0.00 | 0.00 | 53 | 1009.2 | |
| 20260505025017 | 73 | 0.0 | 1.0 | 0.00 | 0.00 | 0.00 | 50 | 1009.1 | |
| 20260505024017 | 73 | 0.0 | 0.0 | 0.00 | 0.00 | 0.00 | 49 | 1009.0 | |
| 20260505023017 | 74 | 0.0 | 0.0 | 0.00 | 0.00 | 0.00 | 47 | 1009.1 | |
| 20260505022017 | 75 | 0.0 | 0.0 | 0.00 | 0.00 | 0.00 | 46 | 1009.1 | |
| 20260505021038 | 75 | 0.0 | 1.0 | 0.00 | 0.00 | 0.00 | 45 | 1009.1 | |
| 20260505020017 | 75 | 0.0 | 2.0 | 0.00 | 0.00 | 0.00 | 44 | 1009.1 | |
| 20260505015017 | 76 | 0.0 | 1.0 | 0.00 | 0.00 | 0.00 | 44 | 1009.0 | |
| 20260505014018 | 76 | 0.0 | 1.0 | 0.00 | 0.00 | 0.00 | 44 | 1009.1 | |
| 20260505013017 | 76 | 0.0 | 1.0 | 0.00 | 0.00 | 0.00 | 45 | 1009.1 | |
| 20260505012017 | 77 | 0.0 | 1.0 | 0.00 | 0.00 | 0.00 | 41 | 1009.2 | |
| 20260505011018 | 77 | 0.0 | 4.0 | 0.00 | 0.00 | 0.00 | 41 | 1009.3 | |
| 20260505010018 | 78 | 0.0 | 4.0 | 0.00 | 0.00 | 0.00 | 41 | 1009.3 | |
| 20260505005017 | 78 | 0.0 | 3.0 | 0.00 | 0.00 | 0.00 | 38 | 1009.3 | |
| 20260505004017 | 78 | 0.0 | 4.0 | 0.00 | 0.00 | 0.00 | 39 | 1009.3 | |
| 20260505003038 | 78 | 0.0 | 2.0 | 0.00 | 0.00 | 0.00 | 37 | 1009.3 | |
| 20260505002018 | 79 | 68 | 1.0 | 5.0 | 0.00 | 0.00 | 0.00 | 38 | 1009.4 |
| 20260505001017 | 79 | 0.0 | 4.0 | 0.00 | 0.00 | 0.00 | 39 | 1009.4 | |
| 20260505000017 | 79 | 158 | 1.0 | 8.0 | 0.00 | 0.00 | 0.00 | 39 | 1009.5 |
| 20260504235017 | 79 | 113 | 1.0 | 4.0 | 0.00 | 0.00 | 0.00 | 38 | 1009.5 |
| 20260504234017 | 79 | 135 | 1.0 | 4.0 | 0.00 | 0.00 | 0.00 | 38 | 1009.6 |
| 20260504233018 | 79 | 0.0 | 4.0 | 0.00 | 0.00 | 0.00 | 39 | 1009.5 | |
| 20260504232037 | 79 | 90 | 1.0 | 4.0 | 0.00 | 0.00 | 0.00 | 39 | 1009.6 |
| 20260504231017 | 79 | 113 | 1.0 | 3.0 | 0.00 | 0.00 | 0.00 | 39 | 1009.6 |
| 20260504230037 | 79 | 113 | 1.0 | 5.0 | 0.00 | 0.00 | 0.00 | 41 | 1009.6 |
| 20260504225017 | 79 | 158 | 1.0 | 5.0 | 0.00 | 0.00 | 0.00 | 40 | 1009.7 |
| 20260504224037 | 79 | 158 | 1.0 | 5.0 | 0.00 | 0.00 | 0.00 | 38 | 1009.8 |
| 20260504223037 | 79 | 225 | 1.0 | 4.0 | 0.00 | 0.00 | 0.00 | 39 | 1009.9 |
| 20260504222037 | 79 | 158 | 1.0 | 8.0 | 0.00 | 0.00 | 0.00 | 39 | 1010.1 |
| 20260504221017 | 79 | 158 | 1.0 | 5.0 | 0.00 | 0.00 | 0.00 | 38 | 1010.2 |
| 20260504220017 | 80 | 45 | 1.0 | 8.0 | 0.00 | 0.00 | 0.00 | 39 | 1010.3 |
| 20260504215037 | 80 | 158 | 1.0 | 4.0 | 0.00 | 0.00 | 0.00 | 37 | 1010.3 |
| 20260504214016 | 80 | 158 | 1.0 | 5.0 | 0.00 | 0.00 | 0.00 | 38 | 1010.4 |
| 20260504213037 | 80 | 0.0 | 3.0 | 0.00 | 0.00 | 0.00 | 39 | 1010.3 | |
| 20260504212017 | 79 | 45 | 1.0 | 5.0 | 0.00 | 0.00 | 0.00 | 38 | 1010.4 |
| 20260504211017 | 79 | 158 | 1.0 | 3.0 | 0.00 | 0.00 | 0.00 | 40 | 1010.3 |
| 20260504210017 | 79 | 158 | 1.0 | 4.0 | 0.00 | 0.00 | 0.00 | 39 | 1010.4 |
| 20260504205017 | 78 | 0.0 | 2.0 | 0.00 | 0.00 | 0.00 | 40 | 1010.5 | |
| 20260504204017 | 78 | 68 | 2.0 | 5.0 | 0.00 | 0.00 | 0.00 | 40 | 1010.6 |
| 20260504203017 | 77 | 158 | 1.0 | 5.0 | 0.00 | 0.00 | 0.00 | 41 | 1010.6 |
| 20260504202016 | 77 | 135 | 1.0 | 5.0 | 0.00 | 0.00 | 0.00 | 41 | 1010.6 |
| 20260504201057 | 76 | 0.0 | 4.0 | 0.00 | 0.00 | 0.00 | 42 | 1010.7 | |
| 20260504200037 | 76 | 0.0 | 3.0 | 0.00 | 0.00 | 0.00 | 42 | 1010.7 | |
| 20260504195017 | 76 | 45 | 1.0 | 4.0 | 0.00 | 0.00 | 0.00 | 42 | 1010.6 |